sensor_id;sensor_type;location;lat;lon;timestamp;temperature;humidity
997;DHT22;487;50.126;8.698;2023-03-04T00:00:17;2.40;99.90
997;DHT22;487;50.126;8.698;2023-03-04T00:05:15;2.40;99.90
997;DHT22;487;50.126;8.698;2023-03-04T00:07:43;2.30;99.90
997;DHT22;487;50.126;8.698;2023-03-04T00:10:11;2.30;99.90
997;DHT22;487;50.126;8.698;2023-03-04T00:12:39;2.30;99.90
997;DHT22;487;50.126;8.698;2023-03-04T00:15:08;2.30;99.90
997;DHT22;487;50.126;8.698;2023-03-04T00:17:36;2.20;99.90
997;DHT22;487;50.126;8.698;2023-03-04T00:20:07;2.20;99.90
997;DHT22;487;50.126;8.698;2023-03-04T00:22:35;2.20;99.90
997;DHT22;487;50.126;8.698;2023-03-04T00:25:04;2.20;99.90
997;DHT22;487;50.126;8.698;2023-03-04T00:27:32;2.20;99.90
997;DHT22;487;50.126;8.698;2023-03-04T00:30:00;2.20;99.90
997;DHT22;487;50.126;8.698;2023-03-04T00:32:28;2.20;99.90
997;DHT22;487;50.126;8.698;2023-03-04T00:34:56;2.20;99.90
997;DHT22;487;50.126;8.698;2023-03-04T00:39:59;2.20;99.90
997;DHT22;487;50.126;8.698;2023-03-04T00:42:27;2.10;99.90
997;DHT22;487;50.126;8.698;2023-03-04T00:47:27;2.10;99.90
997;DHT22;487;50.126;8.698;2023-03-04T00:49:55;2.10;99.90
997;DHT22;487;50.126;8.698;2023-03-04T00:52:23;2.10;99.90
997;DHT22;487;50.126;8.698;2023-03-04T00:54:52;2.10;99.90
997;DHT22;487;50.126;8.698;2023-03-04T00:57:20;2.10;99.90
997;DHT22;487;50.126;8.698;2023-03-04T00:59:48;3.20;99.90
997;DHT22;487;50.126;8.698;2023-03-04T05:02:55;3.50;99.90
997;DHT22;487;50.126;8.698;2023-03-04T05:05:23;3.40;99.90
997;DHT22;487;50.126;8.698;2023-03-04T05:07:51;3.30;99.90
997;DHT22;487;50.126;8.698;2023-03-04T05:10:19;3.30;99.90
997;DHT22;487;50.126;8.698;2023-03-04T05:12:47;3.30;99.90
997;DHT22;487;50.126;8.698;2023-03-04T05:15:15;3.40;99.90
997;DHT22;487;50.126;8.698;2023-03-04T05:17:43;3.40;99.90
997;DHT22;487;50.126;8.698;2023-03-04T05:20:13;3.50;99.90
997;DHT22;487;50.126;8.698;2023-03-04T05:22:40;3.50;99.90
997;DHT22;487;50.126;8.698;2023-03-04T05:25:09;3.50;99.90
997;DHT22;487;50.126;8.698;2023-03-04T05:27:37;3.50;99.90
997;DHT22;487;50.126;8.698;2023-03-04T05:30:06;3.50;99.90
997;DHT22;487;50.126;8.698;2023-03-04T05:32:34;3.50;99.90
997;DHT22;487;50.126;8.698;2023-03-04T05:35:02;3.50;99.90
997;DHT22;487;50.126;8.698;2023-03-04T05:37:31;3.50;99.90
997;DHT22;487;50.126;8.698;2023-03-04T05:39:59;3.60;99.90
997;DHT22;487;50.126;8.698;2023-03-04T05:42:27;3.60;99.90
997;DHT22;487;50.126;8.698;2023-03-04T05:44:55;3.60;99.90
997;DHT22;487;50.126;8.698;2023-03-04T05:47:23;3.60;99.90
997;DHT22;487;50.126;8.698;2023-03-04T05:49:51;3.60;99.90
997;DHT22;487;50.126;8.698;2023-03-04T05:52:20;3.60;99.90
997;DHT22;487;50.126;8.698;2023-03-04T05:54:49;3.60;99.90
997;DHT22;487;50.126;8.698;2023-03-04T05:57:17;3.60;99.90
997;DHT22;487;50.126;8.698;2023-03-04T05:59:45;3.60;99.90
997;DHT22;487;50.126;8.698;2023-03-04T06:02:14;3.70;99.90
997;DHT22;487;50.126;8.698;2023-03-04T06:04:42;3.70;99.90
997;DHT22;487;50.126;8.698;2023-03-04T06:07:09;3.70;99.90
997;DHT22;487;50.126;8.698;2023-03-04T06:09:37;3.70;99.90
997;DHT22;487;50.126;8.698;2023-03-04T06:12:07;3.70;99.90
997;DHT22;487;50.126;8.698;2023-03-04T06:14:35;3.70;99.90
997;DHT22;487;50.126;8.698;2023-03-04T06:17:03;3.70;99.90
997;DHT22;487;50.126;8.698;2023-03-04T06:19:31;3.60;99.90
997;DHT22;487;50.126;8.698;2023-03-04T06:21:59;3.60;99.90
997;DHT22;487;50.126;8.698;2023-03-04T06:24:26;3.60;99.90
997;DHT22;487;50.126;8.698;2023-03-04T06:26:54;3.60;99.90
997;DHT22;487;50.126;8.698;2023-03-04T06:29:24;3.60;99.90
997;DHT22;487;50.126;8.698;2023-03-04T06:31:52;3.60;99.90
997;DHT22;487;50.126;8.698;2023-03-04T06:34:20;3.60;99.90
997;DHT22;487;50.126;8.698;2023-03-04T06:36:48;3.60;99.90
997;DHT22;487;50.126;8.698;2023-03-04T06:39:17;3.60;99.90
997;DHT22;487;50.126;8.698;2023-03-04T06:41:45;3.70;99.90
997;DHT22;487;50.126;8.698;2023-03-04T06:44:12;3.70;99.90
997;DHT22;487;50.126;8.698;2023-03-04T06:46:42;3.70;99.90
997;DHT22;487;50.126;8.698;2023-03-04T06:49:10;3.70;99.90
997;DHT22;487;50.126;8.698;2023-03-04T06:51:38;3.80;99.90
997;DHT22;487;50.126;8.698;2023-03-04T06:54:06;3.80;99.90
997;DHT22;487;50.126;8.698;2023-03-04T06:59:02;3.80;99.90
997;DHT22;487;50.126;8.698;2023-03-04T07:01:30;3.80;99.90
997;DHT22;487;50.126;8.698;2023-03-04T07:03:59;3.90;99.90
997;DHT22;487;50.126;8.698;2023-03-04T07:06:28;3.90;99.90
997;DHT22;487;50.126;8.698;2023-03-04T07:08:56;4.00;99.90
997;DHT22;487;50.126;8.698;2023-03-04T07:11:25;4.00;99.90
997;DHT22;487;50.126;8.698;2023-03-04T07:13:53;4.00;99.90
997;DHT22;487;50.126;8.698;2023-03-04T07:16:22;4.00;99.90
997;DHT22;487;50.126;8.698;2023-03-04T07:18:50;4.10;99.90
997;DHT22;487;50.126;8.698;2023-03-04T07:21:19;4.10;99.90
997;DHT22;487;50.126;8.698;2023-03-04T07:23:48;4.10;99.90
997;DHT22;487;50.126;8.698;2023-03-04T07:26:16;4.10;99.90
997;DHT22;487;50.126;8.698;2023-03-04T07:28:44;4.10;99.90
997;DHT22;487;50.126;8.698;2023-03-04T07:31:18;4.20;99.90
997;DHT22;487;50.126;8.698;2023-03-04T07:33:47;4.30;99.90
997;DHT22;487;50.126;8.698;2023-03-04T07:36:15;4.30;99.90
997;DHT22;487;50.126;8.698;2023-03-04T07:38:48;4.30;99.90
997;DHT22;487;50.126;8.698;2023-03-04T07:41:17;4.30;99.90
997;DHT22;487;50.126;8.698;2023-03-04T07:43:45;4.30;99.90
997;DHT22;487;50.126;8.698;2023-03-04T07:46:15;4.40;99.90
997;DHT22;487;50.126;8.698;2023-03-04T07:48:44;4.40;99.90
997;DHT22;487;50.126;8.698;2023-03-04T07:51:13;4.40;99.90
997;DHT22;487;50.126;8.698;2023-03-04T07:53:43;4.50;99.90
997;DHT22;487;50.126;8.698;2023-03-04T07:56:15;4.50;99.90
997;DHT22;487;50.126;8.698;2023-03-04T07:58:43;4.50;99.90
997;DHT22;487;50.126;8.698;2023-03-04T08:01:13;4.50;99.90
997;DHT22;487;50.126;8.698;2023-03-04T08:03:41;4.60;99.90
997;DHT22;487;50.126;8.698;2023-03-04T08:06:13;4.50;99.90
997;DHT22;487;50.126;8.698;2023-03-04T08:08:41;4.60;99.90
997;DHT22;487;50.126;8.698;2023-03-04T08:11:11;4.60;99.90
997;DHT22;487;50.126;8.698;2023-03-04T08:13:41;4.60;99.90
997;DHT22;487;50.126;8.698;2023-03-04T08:16:11;4.60;99.90
997;DHT22;487;50.126;8.698;2023-03-04T08:18:42;4.60;99.90
997;DHT22;487;50.126;8.698;2023-03-04T08:21:11;4.70;99.90
997;DHT22;487;50.126;8.698;2023-03-04T08:23:39;4.70;99.90
997;DHT22;487;50.126;8.698;2023-03-04T08:26:10;4.80;99.90
997;DHT22;487;50.126;8.698;2023-03-04T08:28:40;4.80;99.90
997;DHT22;487;50.126;8.698;2023-03-04T08:31:08;4.80;99.90
997;DHT22;487;50.126;8.698;2023-03-04T08:33:36;4.80;99.90
997;DHT22;487;50.126;8.698;2023-03-04T08:36:07;4.90;99.90
997;DHT22;487;50.126;8.698;2023-03-04T08:38:37;4.90;99.90
997;DHT22;487;50.126;8.698;2023-03-04T08:41:05;5.00;99.90
997;DHT22;487;50.126;8.698;2023-03-04T08:46:04;5.00;99.90
997;DHT22;487;50.126;8.698;2023-03-04T08:48:32;5.10;99.90
997;DHT22;487;50.126;8.698;2023-03-04T08:51:00;5.10;99.90
997;DHT22;487;50.126;8.698;2023-03-04T08:53:29;5.20;99.90
997;DHT22;487;50.126;8.698;2023-03-04T08:55:57;5.20;99.90
997;DHT22;487;50.126;8.698;2023-03-04T08:58:25;5.30;99.90
997;DHT22;487;50.126;8.698;2023-03-04T09:00:53;5.30;99.90
997;DHT22;487;50.126;8.698;2023-03-04T09:05:50;5.40;99.90
997;DHT22;487;50.126;8.698;2023-03-04T09:13:27;5.40;99.90
997;DHT22;487;50.126;8.698;2023-03-04T09:15:56;5.50;99.90
997;DHT22;487;50.126;8.698;2023-03-04T09:18:26;5.50;99.90
997;DHT22;487;50.126;8.698;2023-03-04T09:23:36;5.50;99.90
997;DHT22;487;50.126;8.698;2023-03-04T09:28:41;5.50;99.90
997;DHT22;487;50.126;8.698;2023-03-04T09:31:13;5.50;99.90
997;DHT22;487;50.126;8.698;2023-03-04T09:33:42;5.50;99.90
997;DHT22;487;50.126;8.698;2023-03-04T09:36:11;5.50;99.90
997;DHT22;487;50.126;8.698;2023-03-04T09:38:41;5.50;99.90
997;DHT22;487;50.126;8.698;2023-03-04T09:41:12;5.50;99.90
997;DHT22;487;50.126;8.698;2023-03-04T09:43:43;5.60;99.90
997;DHT22;487;50.126;8.698;2023-03-04T09:46:14;5.60;99.90
997;DHT22;487;50.126;8.698;2023-03-04T09:48:46;5.60;99.90
997;DHT22;487;50.126;8.698;2023-03-04T09:51:20;5.70;99.90
997;DHT22;487;50.126;8.698;2023-03-04T09:54:04;5.70;99.90
997;DHT22;487;50.126;8.698;2023-03-04T09:56:38;5.70;99.90
997;DHT22;487;50.126;8.698;2023-03-04T09:59:19;5.80;99.90
997;DHT22;487;50.126;8.698;2023-03-04T10:01:53;5.80;99.90
997;DHT22;487;50.126;8.698;2023-03-04T10:04:30;5.90;99.90
997;DHT22;487;50.126;8.698;2023-03-04T10:09:31;5.90;99.90
997;DHT22;487;50.126;8.698;2023-03-04T10:12:11;5.90;99.90
997;DHT22;487;50.126;8.698;2023-03-04T10:14:45;6.10;99.90
997;DHT22;487;50.126;8.698;2023-03-04T10:17:20;6.10;99.90
997;DHT22;487;50.126;8.698;2023-03-04T10:19:54;6.10;99.90
997;DHT22;487;50.126;8.698;2023-03-04T10:22:28;6.20;99.90
997;DHT22;487;50.126;8.698;2023-03-04T10:25:12;6.20;99.90
997;DHT22;487;50.126;8.698;2023-03-04T10:27:49;6.20;99.90
997;DHT22;487;50.126;8.698;2023-03-04T10:30:22;6.30;99.90
997;DHT22;487;50.126;8.698;2023-03-04T10:32:57;6.40;99.90
997;DHT22;487;50.126;8.698;2023-03-04T10:35:32;6.40;99.90
997;DHT22;487;50.126;8.698;2023-03-04T10:38:04;6.40;99.90
997;DHT22;487;50.126;8.698;2023-03-04T10:40:37;6.50;99.90
997;DHT22;487;50.126;8.698;2023-03-04T10:43:13;6.50;99.90
997;DHT22;487;50.126;8.698;2023-03-04T10:45:42;6.50;99.90
997;DHT22;487;50.126;8.698;2023-03-04T10:48:21;6.60;99.90
997;DHT22;487;50.126;8.698;2023-03-04T10:50:51;6.70;99.90
997;DHT22;487;50.126;8.698;2023-03-04T10:53:27;6.70;99.90
997;DHT22;487;50.126;8.698;2023-03-04T10:55:56;6.80;99.90
997;DHT22;487;50.126;8.698;2023-03-04T10:58:24;6.80;99.90
997;DHT22;487;50.126;8.698;2023-03-04T11:01:00;6.80;99.90
997;DHT22;487;50.126;8.698;2023-03-04T11:03:31;6.60;99.90
997;DHT22;487;50.126;8.698;2023-03-04T11:06:10;6.50;99.90
997;DHT22;487;50.126;8.698;2023-03-04T11:08:39;6.60;99.90
997;DHT22;487;50.126;8.698;2023-03-04T11:11:26;6.60;99.90
997;DHT22;487;50.126;8.698;2023-03-04T11:13:59;6.60;99.90
997;DHT22;487;50.126;8.698;2023-03-04T11:16:30;6.70;99.90
997;DHT22;487;50.126;8.698;2023-03-04T11:21:36;6.70;99.90
997;DHT22;487;50.126;8.698;2023-03-04T11:24:10;6.80;99.90
997;DHT22;487;50.126;8.698;2023-03-04T11:26:58;6.90;99.90
997;DHT22;487;50.126;8.698;2023-03-04T11:29:32;6.90;99.90
997;DHT22;487;50.126;8.698;2023-03-04T11:34:38;6.80;99.90
997;DHT22;487;50.126;8.698;2023-03-04T11:37:14;6.80;99.90
997;DHT22;487;50.126;8.698;2023-03-04T11:39:47;6.80;99.90
997;DHT22;487;50.126;8.698;2023-03-04T11:42:25;6.90;99.90
997;DHT22;487;50.126;8.698;2023-03-04T11:50:13;6.90;99.90
997;DHT22;487;50.126;8.698;2023-03-04T11:55:45;6.90;99.90
997;DHT22;487;50.126;8.698;2023-03-04T11:58:32;6.90;99.90
997;DHT22;487;50.126;8.698;2023-03-04T12:01:06;6.90;99.90
997;DHT22;487;50.126;8.698;2023-03-04T12:06:31;7.00;99.90
997;DHT22;487;50.126;8.698;2023-03-04T12:09:11;7.00;99.90
997;DHT22;487;50.126;8.698;2023-03-04T12:11:50;7.10;99.90
997;DHT22;487;50.126;8.698;2023-03-04T12:14:29;7.10;99.90
997;DHT22;487;50.126;8.698;2023-03-04T12:17:29;7.10;99.90
997;DHT22;487;50.126;8.698;2023-03-04T12:20:20;7.10;99.90
997;DHT22;487;50.126;8.698;2023-03-04T12:22:54;7.20;99.90
997;DHT22;487;50.126;8.698;2023-03-04T12:25:44;7.30;99.90
997;DHT22;487;50.126;8.698;2023-03-04T12:28:25;7.30;99.90
997;DHT22;487;50.126;8.698;2023-03-04T12:31:11;7.40;99.90
997;DHT22;487;50.126;8.698;2023-03-04T12:33:54;7.40;99.90
997;DHT22;487;50.126;8.698;2023-03-04T12:36:31;7.60;99.90
997;DHT22;487;50.126;8.698;2023-03-04T12:39:16;7.80;99.90
997;DHT22;487;50.126;8.698;2023-03-04T12:41:56;7.70;99.90
997;DHT22;487;50.126;8.698;2023-03-04T12:44:31;7.70;99.90
997;DHT22;487;50.126;8.698;2023-03-04T12:47:12;7.70;99.90
997;DHT22;487;50.126;8.698;2023-03-04T12:49:50;7.70;99.90
997;DHT22;487;50.126;8.698;2023-03-04T12:52:28;7.80;99.90
997;DHT22;487;50.126;8.698;2023-03-04T12:55:02;7.80;99.90
997;DHT22;487;50.126;8.698;2023-03-04T12:57:32;8.00;99.90
997;DHT22;487;50.126;8.698;2023-03-04T13:00:13;8.00;99.90
997;DHT22;487;50.126;8.698;2023-03-04T13:03:02;8.00;99.90
997;DHT22;487;50.126;8.698;2023-03-04T13:05:43;8.10;99.90
997;DHT22;487;50.126;8.698;2023-03-04T13:08:24;8.10;99.90
997;DHT22;487;50.126;8.698;2023-03-04T13:10:53;8.10;99.90
997;DHT22;487;50.126;8.698;2023-03-04T13:13:37;8.20;99.90
997;DHT22;487;50.126;8.698;2023-03-04T13:16:19;8.00;99.90
997;DHT22;487;50.126;8.698;2023-03-04T13:18:54;7.90;99.90
997;DHT22;487;50.126;8.698;2023-03-04T13:21:24;7.80;99.90
997;DHT22;487;50.126;8.698;2023-03-04T13:23:52;7.90;99.90
997;DHT22;487;50.126;8.698;2023-03-04T13:26:28;7.80;99.90
997;DHT22;487;50.126;8.698;2023-03-04T13:29:33;7.50;99.90
997;DHT22;487;50.126;8.698;2023-03-04T13:32:04;7.50;99.90
997;DHT22;487;50.126;8.698;2023-03-04T13:34:49;7.70;99.90
997;DHT22;487;50.126;8.698;2023-03-04T13:37:30;7.70;99.90
997;DHT22;487;50.126;8.698;2023-03-04T13:40:31;7.80;99.90
997;DHT22;487;50.126;8.698;2023-03-04T13:43:25;7.80;99.90
997;DHT22;487;50.126;8.698;2023-03-04T13:45:54;7.50;99.90
997;DHT22;487;50.126;8.698;2023-03-04T13:48:25;7.50;99.90
997;DHT22;487;50.126;8.698;2023-03-04T13:50:55;7.40;99.90
997;DHT22;487;50.126;8.698;2023-03-04T13:53:43;7.30;99.90
997;DHT22;487;50.126;8.698;2023-03-04T13:56:26;7.30;99.90
997;DHT22;487;50.126;8.698;2023-03-04T13:59:10;7.40;99.90
997;DHT22;487;50.126;8.698;2023-03-04T14:01:53;7.40;99.90
997;DHT22;487;50.126;8.698;2023-03-04T14:04:25;7.40;99.90
997;DHT22;487;50.126;8.698;2023-03-04T14:06:55;7.50;99.90
997;DHT22;487;50.126;8.698;2023-03-04T14:09:25;7.50;99.90
997;DHT22;487;50.126;8.698;2023-03-04T14:11:55;7.50;99.90
997;DHT22;487;50.126;8.698;2023-03-04T14:14:25;7.60;99.90
997;DHT22;487;50.126;8.698;2023-03-04T14:16:57;7.60;99.90
997;DHT22;487;50.126;8.698;2023-03-04T14:19:28;7.60;99.90
997;DHT22;487;50.126;8.698;2023-03-04T14:21:58;7.60;99.90
997;DHT22;487;50.126;8.698;2023-03-04T14:32:03;7.40;99.90
997;DHT22;487;50.126;8.698;2023-03-04T14:34:34;6.90;99.90
997;DHT22;487;50.126;8.698;2023-03-04T14:39:32;7.50;99.90
997;DHT22;487;50.126;8.698;2023-03-04T14:42:07;7.50;99.90
997;DHT22;487;50.126;8.698;2023-03-04T14:44:41;7.50;99.90
997;DHT22;487;50.126;8.698;2023-03-04T14:47:18;7.50;99.90
997;DHT22;487;50.126;8.698;2023-03-04T14:49:48;7.50;99.90
997;DHT22;487;50.126;8.698;2023-03-04T14:52:34;7.50;99.90
997;DHT22;487;50.126;8.698;2023-03-04T14:55:19;7.40;99.90
997;DHT22;487;50.126;8.698;2023-03-04T14:57:49;7.40;99.90
997;DHT22;487;50.126;8.698;2023-03-04T15:00:27;7.40;99.90
997;DHT22;487;50.126;8.698;2023-03-04T15:02:59;7.40;99.90
997;DHT22;487;50.126;8.698;2023-03-04T15:05:32;7.40;99.90
997;DHT22;487;50.126;8.698;2023-03-04T15:08:03;7.40;99.90
997;DHT22;487;50.126;8.698;2023-03-04T15:10:34;7.40;99.90
997;DHT22;487;50.126;8.698;2023-03-04T15:15:35;7.50;99.90
997;DHT22;487;50.126;8.698;2023-03-04T15:18:21;7.50;99.90
997;DHT22;487;50.126;8.698;2023-03-04T15:20:57;7.50;99.90
997;DHT22;487;50.126;8.698;2023-03-04T15:23:26;7.50;99.90
997;DHT22;487;50.126;8.698;2023-03-04T15:25:56;7.50;99.90
997;DHT22;487;50.126;8.698;2023-03-04T15:28:25;7.50;99.90
997;DHT22;487;50.126;8.698;2023-03-04T15:30:53;7.60;99.90
997;DHT22;487;50.126;8.698;2023-03-04T15:33:22;7.70;99.90
997;DHT22;487;50.126;8.698;2023-03-04T15:35:55;7.70;99.90
997;DHT22;487;50.126;8.698;2023-03-04T15:38:24;7.70;99.90
997;DHT22;487;50.126;8.698;2023-03-04T15:40:53;7.70;99.90
997;DHT22;487;50.126;8.698;2023-03-04T15:50:51;7.70;99.90
997;DHT22;487;50.126;8.698;2023-03-04T15:53:26;7.80;99.90
997;DHT22;487;50.126;8.698;2023-03-04T15:55:55;7.70;99.90
997;DHT22;487;50.126;8.698;2023-03-04T15:58:23;7.70;99.90
997;DHT22;487;50.126;8.698;2023-03-04T16:00:51;7.70;99.90
997;DHT22;487;50.126;8.698;2023-03-04T16:05:50;7.80;99.90
997;DHT22;487;50.126;8.698;2023-03-04T16:08:20;7.70;99.90
997;DHT22;487;50.126;8.698;2023-03-04T16:10:49;7.70;99.90
997;DHT22;487;50.126;8.698;2023-03-04T16:13:18;7.70;99.90
997;DHT22;487;50.126;8.698;2023-03-04T16:15:47;7.80;99.90
997;DHT22;487;50.126;8.698;2023-03-04T16:18:16;7.80;99.90
997;DHT22;487;50.126;8.698;2023-03-04T16:20:45;7.80;99.90
997;DHT22;487;50.126;8.698;2023-03-04T16:23:18;7.80;99.90
997;DHT22;487;50.126;8.698;2023-03-04T16:25:48;7.80;99.90
997;DHT22;487;50.126;8.698;2023-03-04T16:28:17;7.80;99.90
997;DHT22;487;50.126;8.698;2023-03-04T16:30:45;7.80;99.90
997;DHT22;487;50.126;8.698;2023-03-04T16:33:13;7.80;99.90
997;DHT22;487;50.126;8.698;2023-03-04T16:35:42;7.70;99.90
997;DHT22;487;50.126;8.698;2023-03-04T16:38:20;7.70;99.90
997;DHT22;487;50.126;8.698;2023-03-04T16:40:48;7.60;99.90
997;DHT22;487;50.126;8.698;2023-03-04T16:43:16;7.50;99.90
997;DHT22;487;50.126;8.698;2023-03-04T16:48:12;7.40;99.90
997;DHT22;487;50.126;8.698;2023-03-04T16:53:22;7.50;99.90
997;DHT22;487;50.126;8.698;2023-03-04T17:05:44;7.40;99.90
997;DHT22;487;50.126;8.698;2023-03-04T17:08:13;7.50;99.90
997;DHT22;487;50.126;8.698;2023-03-04T17:20:35;7.40;99.90
997;DHT22;487;50.126;8.698;2023-03-04T17:23:03;7.30;99.90
997;DHT22;487;50.126;8.698;2023-03-04T17:28:04;7.20;99.90
997;DHT22;487;50.126;8.698;2023-03-04T17:30:32;7.20;99.90
997;DHT22;487;50.126;8.698;2023-03-04T17:40:25;7.20;99.90
997;DHT22;487;50.126;8.698;2023-03-04T17:42:53;7.10;99.90
997;DHT22;487;50.126;8.698;2023-03-04T17:45:22;7.10;99.90
997;DHT22;487;50.126;8.698;2023-03-04T17:47:50;7.10;99.90
997;DHT22;487;50.126;8.698;2023-03-04T17:50:18;7.00;99.90
997;DHT22;487;50.126;8.698;2023-03-04T17:52:46;7.00;99.90
997;DHT22;487;50.126;8.698;2023-03-04T17:55:14;7.00;99.90
997;DHT22;487;50.126;8.698;2023-03-04T17:57:42;7.00;99.90
997;DHT22;487;50.126;8.698;2023-03-04T18:00:11;7.00;99.90
997;DHT22;487;50.126;8.698;2023-03-04T18:02:41;7.00;99.90
997;DHT22;487;50.126;8.698;2023-03-04T18:05:09;7.10;99.90
997;DHT22;487;50.126;8.698;2023-03-04T18:07:37;7.10;99.90
997;DHT22;487;50.126;8.698;2023-03-04T18:10:06;7.10;99.90
997;DHT22;487;50.126;8.698;2023-03-04T18:12:34;7.10;99.90
997;DHT22;487;50.126;8.698;2023-03-04T18:15:02;7.00;99.90
997;DHT22;487;50.126;8.698;2023-03-04T18:17:30;7.00;99.90
997;DHT22;487;50.126;8.698;2023-03-04T18:19:59;7.00;99.90
997;DHT22;487;50.126;8.698;2023-03-04T18:22:28;6.90;99.90
997;DHT22;487;50.126;8.698;2023-03-04T18:24:59;6.90;99.90
997;DHT22;487;50.126;8.698;2023-03-04T18:27:28;6.90;99.90
997;DHT22;487;50.126;8.698;2023-03-04T18:29:56;6.90;99.90
997;DHT22;487;50.126;8.698;2023-03-04T18:32:24;6.90;99.90
997;DHT22;487;50.126;8.698;2023-03-04T18:34:52;6.90;99.90
997;DHT22;487;50.126;8.698;2023-03-04T18:37:21;7.10;99.90
997;DHT22;487;50.126;8.698;2023-03-04T18:39:49;6.90;99.90
997;DHT22;487;50.126;8.698;2023-03-04T18:42:17;6.90;99.90
997;DHT22;487;50.126;8.698;2023-03-04T18:44:45;6.90;99.90
997;DHT22;487;50.126;8.698;2023-03-04T18:49:42;6.90;99.90
997;DHT22;487;50.126;8.698;2023-03-04T18:52:12;6.90;99.90
997;DHT22;487;50.126;8.698;2023-03-04T18:54:42;6.90;99.90
997;DHT22;487;50.126;8.698;2023-03-04T18:57:11;6.90;99.90
997;DHT22;487;50.126;8.698;2023-03-04T18:59:44;6.90;99.90
997;DHT22;487;50.126;8.698;2023-03-04T19:02:18;7.00;99.90
997;DHT22;487;50.126;8.698;2023-03-04T19:04:49;7.00;99.90
997;DHT22;487;50.126;8.698;2023-03-04T19:07:17;6.90;99.90
997;DHT22;487;50.126;8.698;2023-03-04T19:09:47;6.90;99.90
997;DHT22;487;50.126;8.698;2023-03-04T19:12:15;6.90;99.90
997;DHT22;487;50.126;8.698;2023-03-04T19:14:43;6.90;99.90
997;DHT22;487;50.126;8.698;2023-03-04T19:17:11;6.90;99.90
997;DHT22;487;50.126;8.698;2023-03-04T19:19:40;6.90;99.90
997;DHT22;487;50.126;8.698;2023-03-04T19:22:08;6.90;99.90
997;DHT22;487;50.126;8.698;2023-03-04T19:24:36;6.90;99.90
997;DHT22;487;50.126;8.698;2023-03-04T19:27:05;6.90;99.90
997;DHT22;487;50.126;8.698;2023-03-04T19:29:33;6.90;99.90
997;DHT22;487;50.126;8.698;2023-03-04T19:32:01;7.00;99.90
997;DHT22;487;50.126;8.698;2023-03-04T19:34:29;6.90;99.90
997;DHT22;487;50.126;8.698;2023-03-04T19:36:57;6.90;99.90
997;DHT22;487;50.126;8.698;2023-03-04T19:39:25;7.00;99.90
997;DHT22;487;50.126;8.698;2023-03-04T19:41:53;7.00;99.90
997;DHT22;487;50.126;8.698;2023-03-04T19:44:22;7.00;99.90
997;DHT22;487;50.126;8.698;2023-03-04T19:46:50;7.00;99.90
997;DHT22;487;50.126;8.698;2023-03-04T19:49:18;7.00;99.90
997;DHT22;487;50.126;8.698;2023-03-04T19:51:47;7.00;99.90
997;DHT22;487;50.126;8.698;2023-03-04T19:54:15;7.00;99.90
997;DHT22;487;50.126;8.698;2023-03-04T20:01:42;6.90;99.90
997;DHT22;487;50.126;8.698;2023-03-04T20:04:13;7.00;99.90
997;DHT22;487;50.126;8.698;2023-03-04T20:11:43;6.90;99.90
997;DHT22;487;50.126;8.698;2023-03-04T20:16:56;6.80;99.90
997;DHT22;487;50.126;8.698;2023-03-04T20:19:26;6.80;99.90
997;DHT22;487;50.126;8.698;2023-03-04T20:21:55;6.80;99.90
997;DHT22;487;50.126;8.698;2023-03-04T20:24:24;6.80;99.90
997;DHT22;487;50.126;8.698;2023-03-04T21:22:03;6.70;99.90
997;DHT22;487;50.126;8.698;2023-03-04T21:24:33;6.60;99.90
997;DHT22;487;50.126;8.698;2023-03-04T21:32:03;6.70;99.90
997;DHT22;487;50.126;8.698;2023-03-04T21:52:18;6.60;99.90
997;DHT22;487;50.126;8.698;2023-03-04T21:54:47;6.60;99.90
997;DHT22;487;50.126;8.698;2023-03-04T21:59:49;6.60;99.90
997;DHT22;487;50.126;8.698;2023-03-04T22:04:54;6.60;99.90
997;DHT22;487;50.126;8.698;2023-03-04T22:17:29;6.70;99.90
997;DHT22;487;50.126;8.698;2023-03-04T22:22:30;6.60;99.90
997;DHT22;487;50.126;8.698;2023-03-04T22:29:56;6.70;99.90
997;DHT22;487;50.126;8.698;2023-03-04T22:32:24;6.60;99.90
997;DHT22;487;50.126;8.698;2023-03-04T22:37:20;6.60;99.90
997;DHT22;487;50.126;8.698;2023-03-04T22:39:49;6.60;99.90
997;DHT22;487;50.126;8.698;2023-03-04T22:42:17;6.70;99.90
997;DHT22;487;50.126;8.698;2023-03-04T22:44:47;6.70;99.90
997;DHT22;487;50.126;8.698;2023-03-04T22:47:17;6.70;99.90
997;DHT22;487;50.126;8.698;2023-03-04T22:49:45;6.70;99.90
997;DHT22;487;50.126;8.698;2023-03-04T22:52:13;6.70;99.90
997;DHT22;487;50.126;8.698;2023-03-04T22:54:41;6.70;99.90
997;DHT22;487;50.126;8.698;2023-03-04T22:59:39;6.80;99.90
997;DHT22;487;50.126;8.698;2023-03-04T23:02:07;6.80;99.90
997;DHT22;487;50.126;8.698;2023-03-04T23:04:35;6.80;99.90
997;DHT22;487;50.126;8.698;2023-03-04T23:09:32;6.80;99.90
997;DHT22;487;50.126;8.698;2023-03-04T23:12:00;6.80;99.90
997;DHT22;487;50.126;8.698;2023-03-04T23:16:58;6.80;99.90
997;DHT22;487;50.126;8.698;2023-03-04T23:19:26;7.00;99.90
997;DHT22;487;50.126;8.698;2023-03-04T23:21:54;6.80;99.90
997;DHT22;487;50.126;8.698;2023-03-04T23:24:22;6.80;99.90
997;DHT22;487;50.126;8.698;2023-03-04T23:26:52;6.80;99.90
997;DHT22;487;50.126;8.698;2023-03-04T23:29:20;6.80;99.90
997;DHT22;487;50.126;8.698;2023-03-04T23:31:49;6.80;99.90
997;DHT22;487;50.126;8.698;2023-03-04T23:34:17;6.90;99.90
997;DHT22;487;50.126;8.698;2023-03-04T23:36:45;6.90;99.90
997;DHT22;487;50.126;8.698;2023-03-04T23:39:14;6.90;99.90
997;DHT22;487;50.126;8.698;2023-03-04T23:41:42;6.90;99.90
997;DHT22;487;50.126;8.698;2023-03-04T23:44:11;6.70;99.90
997;DHT22;487;50.126;8.698;2023-03-04T23:46:39;6.90;99.90
997;DHT22;487;50.126;8.698;2023-03-04T23:49:11;6.90;99.90
997;DHT22;487;50.126;8.698;2023-03-04T23:51:39;6.90;99.90
997;DHT22;487;50.126;8.698;2023-03-04T23:54:10;6.90;99.90
997;DHT22;487;50.126;8.698;2023-03-04T23:56:39;6.90;99.90
997;DHT22;487;50.126;8.698;2023-03-04T23:59:07;6.80;99.90
